createdAt,value
2023-05-06T00:03:42.730Z,100477.66
2023-05-06T00:08:45.218Z,100469.75
2023-05-06T00:13:46.804Z,100469.81
2023-05-06T00:18:48.356Z,100456.91
2023-05-06T00:23:49.893Z,100459.31
2023-05-06T00:28:51.452Z,100448.09
2023-05-06T00:33:53.098Z,100456.09
2023-05-06T00:38:54.685Z,100460.75
2023-05-06T00:43:56.219Z,100455.84
2023-05-06T00:48:57.899Z,100445.94
2023-05-06T00:54:00.836Z,100432.41
2023-05-06T00:59:02.387Z,100433.63
2023-05-06T01:04:04.152Z,100440.13
2023-05-06T01:09:10.692Z,100437.06
2023-05-06T01:14:20.770Z,100440.41
2023-05-06T01:19:37.337Z,100448.56
2023-05-06T01:24:43.526Z,100433.31
2023-05-06T01:29:46.736Z,100438.09
2023-05-06T01:35:20.310Z,100451.84
2023-05-06T01:40:26.380Z,100444.97
2023-05-06T01:45:30.514Z,100433.53
2023-05-06T01:50:33.289Z,100438.41
2023-05-06T01:55:35.800Z,100445.44
2023-05-06T02:00:38.412Z,100441.75
2023-05-06T02:05:40.047Z,100442.78
2023-05-06T02:10:42.383Z,100445.25
2023-05-06T02:15:44.611Z,100449.06
2023-05-06T02:20:50.973Z,100453.34
2023-05-06T02:25:53.041Z,100452.38
2023-05-06T02:30:57.803Z,100449.13
2023-05-06T02:35:59.429Z,100443.38
2023-05-06T02:41:01.063Z,100443.72
2023-05-06T02:46:02.736Z,100439.09
2023-05-06T02:51:05.379Z,100435.69
2023-05-06T02:56:07.505Z,100426.19
2023-05-06T03:01:09.341Z,100427.53
2023-05-06T03:06:11.091Z,100427.25
2023-05-06T03:11:12.935Z,100431.03
2023-05-06T03:16:14.837Z,100430.22
2023-05-06T03:21:20.330Z,100430.91
2023-05-06T03:26:24.297Z,100433.13
2023-05-06T03:31:26.772Z,100430.00
2023-05-06T03:36:29.525Z,100439.34
2023-05-06T03:41:31.521Z,100431.84
2023-05-06T03:46:33.949Z,100428.38
2023-05-06T03:51:36.130Z,100435.41
2023-05-06T03:56:37.864Z,100424.91
2023-05-06T04:01:39.875Z,100430.41
2023-05-06T04:06:41.568Z,100432.53
2023-05-06T04:11:43.454Z,100434.06
2023-05-06T04:16:48.369Z,100420.84
2023-05-06T04:21:49.989Z,100438.06
2023-05-06T04:26:53.561Z,100443.16
2023-05-06T04:31:55.386Z,100443.94
2023-05-06T04:36:58.692Z,100463.16
2023-05-06T04:42:23.472Z,100459.84
2023-05-06T04:47:36.062Z,100470.00
2023-05-06T04:52:44.277Z,100484.25
2023-05-06T04:57:46.756Z,100489.81
2023-05-06T05:02:48.431Z,100491.75
2023-05-06T05:07:52.025Z,100504.06
2023-05-06T05:12:54.060Z,100504.75
2023-05-06T05:17:56.565Z,100515.06
2023-05-06T05:22:58.421Z,100509.06
2023-05-06T05:28:00.142Z,100512.63
2023-05-06T05:33:03.987Z,100516.69
2023-05-06T05:38:05.966Z,100518.22
2023-05-06T05:43:07.631Z,100515.53
2023-05-06T05:48:13.092Z,100506.63
2023-05-06T05:53:15.197Z,100507.47
2023-05-06T05:58:17.018Z,100516.22
2023-05-06T06:03:19.616Z,100520.50
2023-05-06T06:08:21.519Z,100514.91
2023-05-06T06:13:28.782Z,100516.63
2023-05-06T06:18:30.945Z,100521.81
2023-05-06T06:23:32.607Z,100516.50
2023-05-06T06:28:34.382Z,100511.31
2023-05-06T06:33:36.130Z,100517.88
2023-05-06T06:38:37.704Z,100502.34
2023-05-06T06:43:39.304Z,100497.97
2023-05-06T06:48:51.100Z,100491.00
2023-05-06T06:53:52.755Z,100482.28
2023-05-06T06:58:54.508Z,100495.41
2023-05-06T07:03:56.115Z,100487.94
2023-05-06T07:08:57.720Z,100477.94
2023-05-06T07:13:59.390Z,100474.25
2023-05-06T07:19:01.538Z,100472.28
2023-05-06T07:24:03.380Z,100466.69
2023-05-06T07:29:04.939Z,100467.66
2023-05-06T07:34:07.758Z,100470.75
2023-05-06T07:39:10.816Z,100465.44
2023-05-06T07:44:12.571Z,100460.75
2023-05-06T07:49:14.180Z,100463.81
2023-05-06T07:54:15.833Z,100462.78
2023-05-06T07:59:17.468Z,100451.84
2023-05-06T08:04:19.187Z,100455.22
2023-05-06T08:09:22.941Z,100453.72
2023-05-06T08:14:28.197Z,100458.88
2023-05-06T08:19:29.976Z,100456.16
2023-05-06T08:24:31.708Z,100454.69
2023-05-06T08:29:33.272Z,100463.09
2023-05-06T08:34:35.041Z,100444.19
2023-05-06T08:39:36.603Z,100428.94
2023-05-06T08:44:38.286Z,100426.91
2023-05-06T08:49:39.956Z,100406.94
2023-05-06T08:54:42.659Z,100407.72
2023-05-06T08:59:45.720Z,100399.41
2023-05-06T09:04:48.143Z,100418.66
2023-05-06T09:09:49.886Z,100425.66
2023-05-06T09:14:52.178Z,100421.06
2023-05-06T09:19:56.993Z,100422.75
2023-05-06T09:24:58.977Z,100433.97
2023-05-06T09:30:01.940Z,100425.13
2023-05-06T09:35:04.024Z,100418.09
2023-05-06T09:40:06.375Z,100404.25
2023-05-06T09:45:08.694Z,100393.25
2023-05-06T09:50:10.735Z,100407.94
2023-05-06T09:55:13.125Z,100401.97
2023-05-06T10:00:16.945Z,100374.81
2023-05-06T10:05:18.753Z,100375.00
2023-05-06T10:10:24.111Z,100354.78
2023-05-06T10:15:27.181Z,100360.22
2023-05-06T10:20:31.390Z,100368.31
2023-05-06T10:25:38.615Z,100359.16
2023-05-06T10:30:41.201Z,100343.19
2023-05-06T10:35:57.307Z,100340.84
2023-05-06T10:40:59.783Z,100339.56
2023-05-06T10:46:02.576Z,100327.84
2023-05-06T10:51:19.955Z,100305.28
2023-05-06T10:56:21.728Z,100316.72
2023-05-06T11:01:27.351Z,100312.88
2023-05-06T11:06:37.236Z,100295.53
2023-05-06T11:12:03.300Z,100287.13
2023-05-06T11:17:09.864Z,100314.25
2023-05-06T11:22:41.039Z,100304.38
2023-05-06T11:27:42.657Z,100306.84
2023-05-06T11:32:46.761Z,100302.41
2023-05-06T11:37:48.425Z,100302.31
2023-05-06T11:42:50.112Z,100296.81
2023-05-06T11:47:54.916Z,100298.88
2023-05-06T11:52:56.581Z,100300.22
2023-05-06T11:57:58.112Z,100296.53
2023-05-06T12:02:59.749Z,100290.56
2023-05-06T12:08:01.570Z,100304.19
2023-05-06T12:13:09.417Z,100287.19
2023-05-06T12:18:12.641Z,100292.31
2023-05-06T12:23:15.795Z,100272.16
2023-05-06T12:28:19.224Z,100271.19
2023-05-06T12:33:21.407Z,100275.78
2023-05-06T12:38:22.970Z,100271.88
2023-05-06T12:43:31.334Z,100285.97
2023-05-06T12:48:33.147Z,100271.34
2023-05-06T12:53:35.588Z,100263.25
2023-05-06T12:58:38.094Z,100252.25
2023-05-06T13:03:41.001Z,100251.47
2023-05-06T13:08:42.756Z,100242.50
2023-05-06T13:13:44.365Z,100240.59
2023-05-06T13:18:45.928Z,100222.00
2023-05-06T13:23:47.942Z,100226.00
2023-05-06T13:28:49.597Z,100218.06
2023-05-06T13:33:51.298Z,100222.03
2023-05-06T13:38:52.916Z,100194.63
2023-05-06T13:43:54.487Z,100205.28
2023-05-06T13:48:56.034Z,100208.25
2023-05-06T13:53:57.608Z,100194.31
2023-05-06T13:58:59.447Z,100184.06
2023-05-06T14:04:01.016Z,100183.63
2023-05-06T14:09:02.634Z,100175.72
2023-05-06T14:14:05.288Z,100177.50
2023-05-06T14:19:07.059Z,100182.00
2023-05-06T14:24:10.144Z,100160.34
2023-05-06T14:29:11.904Z,100158.22
2023-05-06T14:34:13.519Z,100161.53
2023-05-06T14:39:15.630Z,100154.44
2023-05-06T14:44:17.135Z,100157.50
2023-05-06T14:49:18.913Z,100151.41
2023-05-06T14:54:20.619Z,100145.00
2023-05-06T14:59:22.673Z,100153.25
2023-05-06T15:04:24.363Z,100134.59
2023-05-06T15:09:26.298Z,100144.16
2023-05-06T15:14:27.842Z,100131.75
2023-05-06T15:19:29.529Z,100140.41
2023-05-06T15:24:31.230Z,100134.50
2023-05-06T15:29:32.864Z,100133.78
2023-05-06T15:34:34.558Z,100138.97
2023-05-06T15:39:37.896Z,100145.16
2023-05-06T15:44:39.544Z,100145.88
2023-05-06T15:54:49.667Z,100141.81
2023-05-06T15:59:51.896Z,100137.75
2023-05-06T16:04:54.018Z,100139.28
2023-05-06T16:09:55.741Z,100126.81
2023-05-06T16:14:57.686Z,100139.91
2023-05-06T16:19:59.383Z,100132.97
2023-05-06T16:25:00.947Z,100121.88
2023-05-06T16:30:02.512Z,100118.75
2023-05-06T16:35:04.252Z,100123.59
2023-05-06T16:40:08.223Z,100113.97
2023-05-06T16:45:10.496Z,100120.25
2023-05-06T16:50:12.670Z,100120.16
2023-05-06T16:55:14.513Z,100120.75
2023-05-06T17:00:16.709Z,100115.50
2023-05-06T17:05:20.678Z,100103.84
2023-05-06T17:10:24.746Z,100112.06
2023-05-06T17:15:26.546Z,100120.22
2023-05-06T17:20:28.152Z,100104.59
2023-05-06T17:25:29.681Z,100105.69
2023-05-06T17:30:31.232Z,100099.50
2023-05-06T17:35:32.796Z,100110.25
2023-05-06T17:40:34.507Z,100102.16
2023-05-06T17:45:36.185Z,100103.06
2023-05-06T17:50:37.718Z,100104.72
2023-05-06T17:55:39.939Z,100107.19
2023-05-06T18:00:41.637Z,100107.97
2023-05-06T18:05:43.196Z,100105.66
2023-05-06T18:10:44.727Z,100111.13
2023-05-06T18:15:46.320Z,100114.97
2023-05-06T18:20:47.844Z,100121.81
2023-05-06T18:25:51.601Z,100126.13
2023-05-06T18:30:53.134Z,100141.34
2023-05-06T18:35:54.693Z,100136.56
2023-05-06T18:40:56.418Z,100144.72
2023-05-06T18:45:58.112Z,100139.28
2023-05-06T18:51:09.584Z,100144.34
2023-05-06T18:56:11.384Z,100147.44
2023-05-06T19:01:12.978Z,100150.75
2023-05-06T19:06:14.694Z,100152.94
2023-05-06T19:11:18.143Z,100163.66
2023-05-06T19:16:19.748Z,100165.44
2023-05-06T19:21:21.855Z,100160.66
2023-05-06T19:26:23.499Z,100160.28
2023-05-06T19:31:25.016Z,100159.59
2023-05-06T19:36:26.794Z,100157.84
2023-05-06T19:41:28.384Z,100157.75
2023-05-06T19:46:29.955Z,100167.13
2023-05-06T19:51:31.614Z,100166.31
2023-05-06T19:56:33.175Z,100163.25
2023-05-06T20:01:34.849Z,100161.56
2023-05-06T20:06:36.423Z,100167.41
2023-05-06T20:11:38.025Z,100170.47
2023-05-06T20:16:40.853Z,100169.59
2023-05-06T20:21:42.439Z,100169.06
2023-05-06T20:26:43.956Z,100176.22
2023-05-06T20:31:46.952Z,100175.03
2023-05-06T20:36:49.842Z,100182.94
2023-05-06T20:41:51.469Z,100170.44
2023-05-06T20:46:52.972Z,100171.94
2023-05-06T20:51:54.638Z,100176.06
2023-05-06T20:56:57.849Z,100163.84
2023-05-06T21:01:59.538Z,100162.94
2023-05-06T21:07:01.147Z,100163.78
2023-05-06T21:12:02.723Z,100163.38
2023-05-06T21:17:04.230Z,100160.66
2023-05-06T21:22:09.906Z,100161.69
2023-05-06T21:27:11.489Z,100153.31
2023-05-06T21:32:13.110Z,100149.44
2023-05-06T21:37:14.639Z,100147.16
2023-05-06T21:42:16.196Z,100142.44
2023-05-06T21:47:17.740Z,100143.81
2023-05-06T21:52:19.250Z,100134.41
2023-05-06T21:57:20.744Z,100140.03
2023-05-06T22:02:22.328Z,100140.78
2023-05-06T22:07:23.892Z,100140.16
2023-05-06T22:12:25.504Z,100138.94
2023-05-06T22:17:27.313Z,100144.66
2023-05-06T22:22:29.022Z,100140.13
2023-05-06T22:27:30.945Z,100147.31
2023-05-06T22:32:32.573Z,100148.22
2023-05-06T22:37:34.152Z,100149.00
2023-05-06T22:42:35.763Z,100149.66
2023-05-06T22:47:37.364Z,100154.81
2023-05-06T22:52:38.951Z,100154.06
2023-05-06T22:57:40.579Z,100154.50
2023-05-06T23:02:42.227Z,100152.34
2023-05-06T23:07:43.807Z,100152.78
2023-05-06T23:12:45.426Z,100148.81
2023-05-06T23:17:47.008Z,100148.13
2023-05-06T23:22:48.617Z,100157.72
2023-05-06T23:27:50.188Z,100144.03
2023-05-06T23:32:51.819Z,100152.28
2023-05-06T23:37:53.414Z,100146.94
2023-05-06T23:42:54.964Z,100149.72
2023-05-06T23:47:57.044Z,100151.63
2023-05-06T23:52:58.666Z,100161.41
2023-05-06T23:58:00.328Z,100147.25
